sensor_id;sensor_type;location;lat;lon;timestamp;P1;durP1;ratioP1;P2;durP2;ratioP2
38611;SDS011;24368;52.156;20.788;2023-05-09T00:02:37;21.30;;;16.40;;
38611;SDS011;24368;52.156;20.788;2023-05-09T00:07:39;20.70;;;16.60;;
38611;SDS011;24368;52.156;20.788;2023-05-09T00:12:40;16.40;;;14.00;;
38611;SDS011;24368;52.156;20.788;2023-05-09T00:17:43;14.50;;;12.90;;
38611;SDS011;24368;52.156;20.788;2023-05-09T00:22:45;14.70;;;12.70;;
38611;SDS011;24368;52.156;20.788;2023-05-09T00:27:46;21.10;;;13.80;;
38611;SDS011;24368;52.156;20.788;2023-05-09T00:32:47;17.00;;;12.80;;
38611;SDS011;24368;52.156;20.788;2023-05-09T00:37:48;18.10;;;12.40;;
38611;SDS011;24368;52.156;20.788;2023-05-09T00:42:49;17.40;;;11.50;;
38611;SDS011;24368;52.156;20.788;2023-05-09T00:47:51;18.30;;;11.60;;
38611;SDS011;24368;52.156;20.788;2023-05-09T00:52:52;14.80;;;11.60;;
38611;SDS011;24368;52.156;20.788;2023-05-09T00:57:53;19.40;;;13.00;;
38611;SDS011;24368;52.156;20.788;2023-05-09T01:02:55;18.30;;;12.50;;
38611;SDS011;24368;52.156;20.788;2023-05-09T01:08:06;18.10;;;13.00;;
38611;SDS011;24368;52.156;20.788;2023-05-09T01:13:37;16.40;;;12.30;;
38611;SDS011;24368;52.156;20.788;2023-05-09T01:24:39;14.70;;;11.70;;
38611;SDS011;24368;52.156;20.788;2023-05-09T01:29:57;16.50;;;11.40;;
38611;SDS011;24368;52.156;20.788;2023-05-09T01:35:02;13.50;;;10.70;;
38611;SDS011;24368;52.156;20.788;2023-05-09T01:40:13;16.30;;;11.80;;
38611;SDS011;24368;52.156;20.788;2023-05-09T01:45:16;13.60;;;10.40;;
38611;SDS011;24368;52.156;20.788;2023-05-09T01:50:18;13.00;;;10.60;;
38611;SDS011;24368;52.156;20.788;2023-05-09T01:55:22;14.20;;;10.80;;
38611;SDS011;24368;52.156;20.788;2023-05-09T02:00:26;13.10;;;10.60;;
38611;SDS011;24368;52.156;20.788;2023-05-09T02:05:28;14.00;;;10.90;;
38611;SDS011;24368;52.156;20.788;2023-05-09T02:10:31;15.10;;;10.90;;
38611;SDS011;24368;52.156;20.788;2023-05-09T02:15:33;14.30;;;10.90;;
38611;SDS011;24368;52.156;20.788;2023-05-09T02:20:34;14.10;;;10.00;;
38611;SDS011;24368;52.156;20.788;2023-05-09T02:25:36;14.10;;;11.30;;
38611;SDS011;24368;52.156;20.788;2023-05-09T02:30:39;12.80;;;9.10;;
38611;SDS011;24368;52.156;20.788;2023-05-09T02:35:44;14.30;;;11.00;;
38611;SDS011;24368;52.156;20.788;2023-05-09T02:40:46;11.60;;;10.40;;
38611;SDS011;24368;52.156;20.788;2023-05-09T02:45:48;17.50;;;11.00;;
38611;SDS011;24368;52.156;20.788;2023-05-09T02:50:49;15.00;;;10.20;;
38611;SDS011;24368;52.156;20.788;2023-05-09T02:55:50;12.50;;;10.50;;
38611;SDS011;24368;52.156;20.788;2023-05-09T03:00:51;14.10;;;11.50;;
38611;SDS011;24368;52.156;20.788;2023-05-09T03:05:52;14.10;;;11.80;;
38611;SDS011;24368;52.156;20.788;2023-05-09T03:10:53;15.40;;;12.30;;
38611;SDS011;24368;52.156;20.788;2023-05-09T03:15:54;15.50;;;11.90;;
38611;SDS011;24368;52.156;20.788;2023-05-09T03:20:55;16.30;;;12.00;;
38611;SDS011;24368;52.156;20.788;2023-05-09T03:25:56;16.40;;;14.70;;
38611;SDS011;24368;52.156;20.788;2023-05-09T03:30:57;19.50;;;17.30;;
38611;SDS011;24368;52.156;20.788;2023-05-09T03:35:58;24.30;;;19.30;;
38611;SDS011;24368;52.156;20.788;2023-05-09T03:40:59;22.10;;;17.80;;
38611;SDS011;24368;52.156;20.788;2023-05-09T03:46:00;21.40;;;17.20;;
38611;SDS011;24368;52.156;20.788;2023-05-09T03:51:02;16.60;;;15.00;;
38611;SDS011;24368;52.156;20.788;2023-05-09T03:56:03;21.30;;;17.70;;
38611;SDS011;24368;52.156;20.788;2023-05-09T04:01:04;21.90;;;18.80;;
38611;SDS011;24368;52.156;20.788;2023-05-09T04:06:06;22.00;;;18.10;;
38611;SDS011;24368;52.156;20.788;2023-05-09T04:11:07;24.80;;;19.00;;
38611;SDS011;24368;52.156;20.788;2023-05-09T04:16:08;19.90;;;16.40;;
38611;SDS011;24368;52.156;20.788;2023-05-09T04:21:09;18.30;;;15.70;;
38611;SDS011;24368;52.156;20.788;2023-05-09T04:26:10;20.00;;;15.20;;
38611;SDS011;24368;52.156;20.788;2023-05-09T04:31:13;14.90;;;13.40;;
38611;SDS011;24368;52.156;20.788;2023-05-09T04:36:14;16.90;;;12.80;;
38611;SDS011;24368;52.156;20.788;2023-05-09T04:41:15;15.70;;;12.00;;
38611;SDS011;24368;52.156;20.788;2023-05-09T04:46:16;13.30;;;10.50;;
38611;SDS011;24368;52.156;20.788;2023-05-09T04:51:17;12.30;;;10.30;;
38611;SDS011;24368;52.156;20.788;2023-05-09T04:56:19;10.20;;;8.90;;
38611;SDS011;24368;52.156;20.788;2023-05-09T05:01:21;14.90;;;9.90;;
38611;SDS011;24368;52.156;20.788;2023-05-09T05:06:22;13.40;;;12.00;;
38611;SDS011;24368;52.156;20.788;2023-05-09T05:11:23;11.00;;;9.80;;
38611;SDS011;24368;52.156;20.788;2023-05-09T05:16:25;9.40;;;8.40;;
38611;SDS011;24368;52.156;20.788;2023-05-09T05:21:26;8.60;;;7.80;;
38611;SDS011;24368;52.156;20.788;2023-05-09T05:26:27;11.30;;;8.30;;
38611;SDS011;24368;52.156;20.788;2023-05-09T05:31:28;10.80;;;8.60;;
38611;SDS011;24368;52.156;20.788;2023-05-09T05:36:29;8.70;;;7.80;;
38611;SDS011;24368;52.156;20.788;2023-05-09T05:41:31;9.60;;;7.50;;
38611;SDS011;24368;52.156;20.788;2023-05-09T05:46:32;8.30;;;7.50;;
38611;SDS011;24368;52.156;20.788;2023-05-09T05:51:34;9.50;;;7.50;;
38611;SDS011;24368;52.156;20.788;2023-05-09T05:56:35;8.60;;;6.60;;
38611;SDS011;24368;52.156;20.788;2023-05-09T06:01:36;6.20;;;5.60;;
38611;SDS011;24368;52.156;20.788;2023-05-09T06:06:37;6.40;;;5.40;;
38611;SDS011;24368;52.156;20.788;2023-05-09T06:11:38;6.50;;;5.50;;
38611;SDS011;24368;52.156;20.788;2023-05-09T06:16:39;8.50;;;7.30;;
38611;SDS011;24368;52.156;20.788;2023-05-09T06:21:41;7.80;;;6.70;;
38611;SDS011;24368;52.156;20.788;2023-05-09T06:26:42;5.00;;;4.60;;
38611;SDS011;24368;52.156;20.788;2023-05-09T06:31:43;5.40;;;4.40;;
38611;SDS011;24368;52.156;20.788;2023-05-09T06:36:44;4.10;;;3.70;;
38611;SDS011;24368;52.156;20.788;2023-05-09T06:41:45;3.80;;;3.50;;
38611;SDS011;24368;52.156;20.788;2023-05-09T06:46:46;3.50;;;3.20;;
38611;SDS011;24368;52.156;20.788;2023-05-09T06:51:47;5.60;;;4.30;;
38611;SDS011;24368;52.156;20.788;2023-05-09T06:56:48;6.10;;;3.60;;
38611;SDS011;24368;52.156;20.788;2023-05-09T07:01:49;4.20;;;2.50;;
38611;SDS011;24368;52.156;20.788;2023-05-09T07:06:50;4.90;;;2.60;;
38611;SDS011;24368;52.156;20.788;2023-05-09T07:11:52;3.60;;;2.40;;
38611;SDS011;24368;52.156;20.788;2023-05-09T07:16:53;2.30;;;2.10;;
38611;SDS011;24368;52.156;20.788;2023-05-09T07:21:55;2.00;;;1.70;;
38611;SDS011;24368;52.156;20.788;2023-05-09T07:26:56;2.70;;;2.00;;
38611;SDS011;24368;52.156;20.788;2023-05-09T07:31:57;3.00;;;2.70;;
38611;SDS011;24368;52.156;20.788;2023-05-09T07:36:58;3.00;;;2.10;;
38611;SDS011;24368;52.156;20.788;2023-05-09T07:41:59;3.20;;;1.70;;
38611;SDS011;24368;52.156;20.788;2023-05-09T07:47:01;2.40;;;1.70;;
38611;SDS011;24368;52.156;20.788;2023-05-09T07:52:02;4.30;;;1.60;;
38611;SDS011;24368;52.156;20.788;2023-05-09T07:57:03;3.20;;;2.10;;
38611;SDS011;24368;52.156;20.788;2023-05-09T08:02:05;3.00;;;1.40;;
38611;SDS011;24368;52.156;20.788;2023-05-09T08:07:06;1.70;;;1.30;;
38611;SDS011;24368;52.156;20.788;2023-05-09T08:12:08;1.50;;;1.30;;
38611;SDS011;24368;52.156;20.788;2023-05-09T08:17:10;4.90;;;3.80;;
38611;SDS011;24368;52.156;20.788;2023-05-09T08:22:17;3.70;;;2.50;;
38611;SDS011;24368;52.156;20.788;2023-05-09T08:27:19;1.50;;;1.30;;
38611;SDS011;24368;52.156;20.788;2023-05-09T08:32:20;2.20;;;1.30;;
38611;SDS011;24368;52.156;20.788;2023-05-09T08:37:22;1.60;;;1.50;;
38611;SDS011;24368;52.156;20.788;2023-05-09T08:42:23;3.00;;;1.60;;
38611;SDS011;24368;52.156;20.788;2023-05-09T08:47:25;3.00;;;1.30;;
38611;SDS011;24368;52.156;20.788;2023-05-09T08:52:31;1.70;;;1.40;;
38611;SDS011;24368;52.156;20.788;2023-05-09T08:57:33;1.80;;;1.60;;
38611;SDS011;24368;52.156;20.788;2023-05-09T09:02:35;1.90;;;1.50;;
38611;SDS011;24368;52.156;20.788;2023-05-09T09:07:37;3.00;;;1.40;;
38611;SDS011;24368;52.156;20.788;2023-05-09T09:12:40;3.60;;;1.60;;
38611;SDS011;24368;52.156;20.788;2023-05-09T09:17:43;1.10;;;1.00;;
38611;SDS011;24368;52.156;20.788;2023-05-09T09:22:50;2.10;;;1.60;;
38611;SDS011;24368;52.156;20.788;2023-05-09T09:27:53;2.00;;;1.20;;
38611;SDS011;24368;52.156;20.788;2023-05-09T09:32:54;4.70;;;1.90;;
38611;SDS011;24368;52.156;20.788;2023-05-09T09:37:58;2.50;;;2.20;;
38611;SDS011;24368;52.156;20.788;2023-05-09T09:42:59;3.40;;;2.00;;
38611;SDS011;24368;52.156;20.788;2023-05-09T09:48:00;2.30;;;2.00;;
38611;SDS011;24368;52.156;20.788;2023-05-09T09:53:06;1.70;;;1.60;;
38611;SDS011;24368;52.156;20.788;2023-05-09T09:58:17;2.30;;;2.10;;
38611;SDS011;24368;52.156;20.788;2023-05-09T10:03:21;3.00;;;1.30;;
38611;SDS011;24368;52.156;20.788;2023-05-09T10:08:22;2.40;;;1.70;;
38611;SDS011;24368;52.156;20.788;2023-05-09T10:13:23;1.90;;;1.80;;
38611;SDS011;24368;52.156;20.788;2023-05-09T10:18:27;2.10;;;1.30;;
38611;SDS011;24368;52.156;20.788;2023-05-09T10:23:31;1.90;;;1.60;;
38611;SDS011;24368;52.156;20.788;2023-05-09T10:28:34;2.50;;;1.50;;
38611;SDS011;24368;52.156;20.788;2023-05-09T10:33:40;1.60;;;1.40;;
38611;SDS011;24368;52.156;20.788;2023-05-09T10:38:52;1.90;;;1.70;;
38611;SDS011;24368;52.156;20.788;2023-05-09T10:43:55;1.90;;;1.70;;
38611;SDS011;24368;52.156;20.788;2023-05-09T10:48:57;2.90;;;1.40;;
38611;SDS011;24368;52.156;20.788;2023-05-09T10:53:59;3.30;;;2.10;;
38611;SDS011;24368;52.156;20.788;2023-05-09T10:59:00;2.00;;;1.30;;
38611;SDS011;24368;52.156;20.788;2023-05-09T11:04:08;1.70;;;1.60;;
38611;SDS011;24368;52.156;20.788;2023-05-09T11:19:35;2.10;;;1.70;;
38611;SDS011;24368;52.156;20.788;2023-05-09T11:24:45;2.10;;;1.70;;
38611;SDS011;24368;52.156;20.788;2023-05-09T11:29:49;2.00;;;1.60;;
38611;SDS011;24368;52.156;20.788;2023-05-09T11:35:06;2.80;;;1.50;;
38611;SDS011;24368;52.156;20.788;2023-05-09T11:40:18;2.20;;;1.30;;
38611;SDS011;24368;52.156;20.788;2023-05-09T11:45:24;4.60;;;2.90;;
38611;SDS011;24368;52.156;20.788;2023-05-09T11:50:30;3.00;;;1.70;;
38611;SDS011;24368;52.156;20.788;2023-05-09T11:55:31;2.50;;;1.90;;
38611;SDS011;24368;52.156;20.788;2023-05-09T12:00:44;2.20;;;1.80;;
38611;SDS011;24368;52.156;20.788;2023-05-09T12:05:49;1.60;;;1.30;;
38611;SDS011;24368;52.156;20.788;2023-05-09T12:10:50;3.60;;;2.40;;
38611;SDS011;24368;52.156;20.788;2023-05-09T12:15:52;1.40;;;1.30;;
38611;SDS011;24368;52.156;20.788;2023-05-09T12:21:00;3.00;;;2.00;;
38611;SDS011;24368;52.156;20.788;2023-05-09T12:26:01;1.90;;;1.40;;
38611;SDS011;24368;52.156;20.788;2023-05-09T12:31:03;2.70;;;1.50;;
38611;SDS011;24368;52.156;20.788;2023-05-09T12:41:09;3.60;;;1.30;;
38611;SDS011;24368;52.156;20.788;2023-05-09T12:46:11;2.00;;;1.30;;
38611;SDS011;24368;52.156;20.788;2023-05-09T12:51:16;2.10;;;1.10;;
38611;SDS011;24368;52.156;20.788;2023-05-09T12:56:22;2.50;;;1.20;;
38611;SDS011;24368;52.156;20.788;2023-05-09T13:01:25;3.40;;;1.10;;
38611;SDS011;24368;52.156;20.788;2023-05-09T13:06:27;1.70;;;1.60;;
38611;SDS011;24368;52.156;20.788;2023-05-09T13:11:29;2.40;;;1.30;;
38611;SDS011;24368;52.156;20.788;2023-05-09T13:16:30;2.60;;;1.50;;
38611;SDS011;24368;52.156;20.788;2023-05-09T13:21:31;2.60;;;1.70;;
38611;SDS011;24368;52.156;20.788;2023-05-09T13:26:33;1.80;;;1.20;;
38611;SDS011;24368;52.156;20.788;2023-05-09T13:31:35;1.20;;;1.10;;
38611;SDS011;24368;52.156;20.788;2023-05-09T13:36:36;1.90;;;1.60;;
38611;SDS011;24368;52.156;20.788;2023-05-09T13:41:37;1.60;;;1.50;;
38611;SDS011;24368;52.156;20.788;2023-05-09T13:46:38;2.50;;;1.70;;
38611;SDS011;24368;52.156;20.788;2023-05-09T13:51:39;1.70;;;1.50;;
38611;SDS011;24368;52.156;20.788;2023-05-09T13:56:41;2.50;;;1.30;;
38611;SDS011;24368;52.156;20.788;2023-05-09T14:01:43;2.40;;;1.20;;
38611;SDS011;24368;52.156;20.788;2023-05-09T14:06:44;3.80;;;2.20;;
38611;SDS011;24368;52.156;20.788;2023-05-09T14:11:50;3.50;;;1.50;;
38611;SDS011;24368;52.156;20.788;2023-05-09T14:16:52;1.50;;;1.40;;
38611;SDS011;24368;52.156;20.788;2023-05-09T14:21:54;2.20;;;1.90;;
38611;SDS011;24368;52.156;20.788;2023-05-09T14:26:56;5.70;;;2.60;;
38611;SDS011;24368;52.156;20.788;2023-05-09T14:31:57;2.30;;;1.40;;
38611;SDS011;24368;52.156;20.788;2023-05-09T14:36:58;1.60;;;1.40;;
38611;SDS011;24368;52.156;20.788;2023-05-09T14:41:59;2.60;;;1.50;;
38611;SDS011;24368;52.156;20.788;2023-05-09T14:47:02;1.50;;;1.40;;
38611;SDS011;24368;52.156;20.788;2023-05-09T14:52:03;3.30;;;1.60;;
38611;SDS011;24368;52.156;20.788;2023-05-09T14:57:04;1.60;;;1.20;;
38611;SDS011;24368;52.156;20.788;2023-05-09T15:02:07;1.40;;;1.10;;
38611;SDS011;24368;52.156;20.788;2023-05-09T15:07:08;1.80;;;1.60;;
38611;SDS011;24368;52.156;20.788;2023-05-09T15:12:09;1.40;;;1.20;;
38611;SDS011;24368;52.156;20.788;2023-05-09T15:17:10;2.60;;;1.40;;
38611;SDS011;24368;52.156;20.788;2023-05-09T15:22:12;1.70;;;1.60;;
38611;SDS011;24368;52.156;20.788;2023-05-09T15:27:13;2.10;;;1.50;;
38611;SDS011;24368;52.156;20.788;2023-05-09T15:32:14;2.50;;;1.40;;
38611;SDS011;24368;52.156;20.788;2023-05-09T15:37:16;3.90;;;1.30;;
38611;SDS011;24368;52.156;20.788;2023-05-09T15:42:17;2.90;;;1.70;;
38611;SDS011;24368;52.156;20.788;2023-05-09T15:47:18;2.10;;;1.60;;
38611;SDS011;24368;52.156;20.788;2023-05-09T15:52:20;2.10;;;1.70;;
38611;SDS011;24368;52.156;20.788;2023-05-09T15:57:21;5.30;;;2.00;;
38611;SDS011;24368;52.156;20.788;2023-05-09T16:02:22;1.70;;;1.60;;
38611;SDS011;24368;52.156;20.788;2023-05-09T16:07:24;1.60;;;1.50;;
38611;SDS011;24368;52.156;20.788;2023-05-09T16:12:26;5.40;;;1.60;;
38611;SDS011;24368;52.156;20.788;2023-05-09T16:17:28;1.70;;;1.60;;
38611;SDS011;24368;52.156;20.788;2023-05-09T16:22:29;2.20;;;1.60;;
38611;SDS011;24368;52.156;20.788;2023-05-09T16:27:31;3.00;;;1.90;;
38611;SDS011;24368;52.156;20.788;2023-05-09T16:32:32;2.30;;;1.70;;
38611;SDS011;24368;52.156;20.788;2023-05-09T16:37:33;3.50;;;1.80;;
38611;SDS011;24368;52.156;20.788;2023-05-09T16:42:34;1.80;;;1.60;;
38611;SDS011;24368;52.156;20.788;2023-05-09T16:47:36;2.00;;;1.80;;
38611;SDS011;24368;52.156;20.788;2023-05-09T16:52:37;3.20;;;1.60;;
38611;SDS011;24368;52.156;20.788;2023-05-09T16:57:38;1.50;;;1.40;;
38611;SDS011;24368;52.156;20.788;2023-05-09T17:02:39;1.80;;;1.30;;
38611;SDS011;24368;52.156;20.788;2023-05-09T17:07:40;4.00;;;1.60;;
38611;SDS011;24368;52.156;20.788;2023-05-09T17:12:42;2.20;;;1.80;;
38611;SDS011;24368;52.156;20.788;2023-05-09T17:17:43;1.50;;;1.20;;
38611;SDS011;24368;52.156;20.788;2023-05-09T17:22:46;2.30;;;1.40;;
38611;SDS011;24368;52.156;20.788;2023-05-09T17:27:48;1.60;;;1.50;;
38611;SDS011;24368;52.156;20.788;2023-05-09T17:32:49;2.40;;;1.30;;
38611;SDS011;24368;52.156;20.788;2023-05-09T17:37:50;2.60;;;1.80;;
38611;SDS011;24368;52.156;20.788;2023-05-09T17:42:51;4.20;;;1.10;;
38611;SDS011;24368;52.156;20.788;2023-05-09T17:47:52;9.20;;;4.80;;
38611;SDS011;24368;52.156;20.788;2023-05-09T17:52:53;2.10;;;1.80;;
38611;SDS011;24368;52.156;20.788;2023-05-09T17:57:55;1.80;;;1.50;;
38611;SDS011;24368;52.156;20.788;2023-05-09T18:02:56;5.60;;;1.60;;
38611;SDS011;24368;52.156;20.788;2023-05-09T18:07:59;2.30;;;1.60;;
38611;SDS011;24368;52.156;20.788;2023-05-09T18:13:01;2.10;;;1.80;;
38611;SDS011;24368;52.156;20.788;2023-05-09T18:18:03;2.00;;;1.80;;
38611;SDS011;24368;52.156;20.788;2023-05-09T18:23:08;2.90;;;2.00;;
38611;SDS011;24368;52.156;20.788;2023-05-09T18:28:09;4.90;;;2.00;;
38611;SDS011;24368;52.156;20.788;2023-05-09T18:33:10;2.90;;;2.10;;
38611;SDS011;24368;52.156;20.788;2023-05-09T18:38:11;2.30;;;2.10;;
38611;SDS011;24368;52.156;20.788;2023-05-09T18:43:12;3.30;;;2.30;;
38611;SDS011;24368;52.156;20.788;2023-05-09T18:48:16;4.30;;;3.00;;
38611;SDS011;24368;52.156;20.788;2023-05-09T18:53:17;2.20;;;2.00;;
38611;SDS011;24368;52.156;20.788;2023-05-09T18:58:19;2.30;;;2.00;;
38611;SDS011;24368;52.156;20.788;2023-05-09T19:03:21;2.30;;;2.10;;
38611;SDS011;24368;52.156;20.788;2023-05-09T19:08:24;4.00;;;2.60;;
38611;SDS011;24368;52.156;20.788;2023-05-09T19:13:26;3.20;;;2.40;;
38611;SDS011;24368;52.156;20.788;2023-05-09T19:18:27;3.00;;;2.70;;
38611;SDS011;24368;52.156;20.788;2023-05-09T19:23:29;3.40;;;2.50;;
38611;SDS011;24368;52.156;20.788;2023-05-09T19:28:30;3.10;;;2.90;;
38611;SDS011;24368;52.156;20.788;2023-05-09T19:33:32;3.90;;;2.00;;
38611;SDS011;24368;52.156;20.788;2023-05-09T19:38:37;3.30;;;3.00;;
38611;SDS011;24368;52.156;20.788;2023-05-09T19:43:39;3.00;;;2.60;;
38611;SDS011;24368;52.156;20.788;2023-05-09T19:48:40;3.30;;;3.00;;
38611;SDS011;24368;52.156;20.788;2023-05-09T19:53:41;3.20;;;2.90;;
38611;SDS011;24368;52.156;20.788;2023-05-09T19:58:42;3.40;;;2.70;;
38611;SDS011;24368;52.156;20.788;2023-05-09T20:03:44;3.80;;;2.80;;
38611;SDS011;24368;52.156;20.788;2023-05-09T20:08:46;3.30;;;3.00;;
38611;SDS011;24368;52.156;20.788;2023-05-09T20:13:48;3.60;;;2.90;;
38611;SDS011;24368;52.156;20.788;2023-05-09T20:18:49;4.40;;;2.90;;
38611;SDS011;24368;52.156;20.788;2023-05-09T20:23:51;4.30;;;2.90;;
38611;SDS011;24368;52.156;20.788;2023-05-09T20:28:53;4.30;;;2.70;;
38611;SDS011;24368;52.156;20.788;2023-05-09T20:33:58;3.30;;;2.90;;
38611;SDS011;24368;52.156;20.788;2023-05-09T20:38:59;3.00;;;2.80;;
38611;SDS011;24368;52.156;20.788;2023-05-09T20:44:01;2.90;;;2.40;;
38611;SDS011;24368;52.156;20.788;2023-05-09T20:49:04;5.90;;;3.00;;
38611;SDS011;24368;52.156;20.788;2023-05-09T20:54:05;3.60;;;3.10;;
38611;SDS011;24368;52.156;20.788;2023-05-09T20:59:06;4.30;;;2.90;;
38611;SDS011;24368;52.156;20.788;2023-05-09T21:04:08;3.50;;;2.90;;
38611;SDS011;24368;52.156;20.788;2023-05-09T21:09:10;4.00;;;3.10;;
38611;SDS011;24368;52.156;20.788;2023-05-09T21:14:11;3.40;;;3.10;;
38611;SDS011;24368;52.156;20.788;2023-05-09T21:19:12;4.90;;;3.30;;
38611;SDS011;24368;52.156;20.788;2023-05-09T21:24:13;3.10;;;2.90;;
38611;SDS011;24368;52.156;20.788;2023-05-09T21:29:14;4.40;;;3.20;;
38611;SDS011;24368;52.156;20.788;2023-05-09T21:34:15;3.90;;;3.20;;
38611;SDS011;24368;52.156;20.788;2023-05-09T21:39:16;4.50;;;3.30;;
38611;SDS011;24368;52.156;20.788;2023-05-09T21:44:17;5.20;;;3.20;;
38611;SDS011;24368;52.156;20.788;2023-05-09T21:49:18;4.60;;;3.20;;
38611;SDS011;24368;52.156;20.788;2023-05-09T21:54:20;3.10;;;2.90;;
38611;SDS011;24368;52.156;20.788;2023-05-09T21:59:21;5.50;;;3.20;;
38611;SDS011;24368;52.156;20.788;2023-05-09T22:04:22;5.90;;;3.50;;
38611;SDS011;24368;52.156;20.788;2023-05-09T22:09:24;5.30;;;3.10;;
38611;SDS011;24368;52.156;20.788;2023-05-09T22:14:25;4.10;;;2.90;;
38611;SDS011;24368;52.156;20.788;2023-05-09T22:19:26;4.50;;;3.10;;
38611;SDS011;24368;52.156;20.788;2023-05-09T22:24:27;4.40;;;3.20;;
38611;SDS011;24368;52.156;20.788;2023-05-09T22:29:28;3.70;;;3.30;;
38611;SDS011;24368;52.156;20.788;2023-05-09T22:34:32;4.30;;;3.20;;
38611;SDS011;24368;52.156;20.788;2023-05-09T22:39:33;4.80;;;3.40;;
38611;SDS011;24368;52.156;20.788;2023-05-09T22:44:34;3.60;;;3.20;;
38611;SDS011;24368;52.156;20.788;2023-05-09T22:49:35;3.80;;;3.50;;
38611;SDS011;24368;52.156;20.788;2023-05-09T22:54:37;5.00;;;2.90;;
38611;SDS011;24368;52.156;20.788;2023-05-09T22:59:38;4.60;;;3.30;;
38611;SDS011;24368;52.156;20.788;2023-05-09T23:04:39;4.20;;;3.00;;
38611;SDS011;24368;52.156;20.788;2023-05-09T23:09:40;3.00;;;2.70;;
38611;SDS011;24368;52.156;20.788;2023-05-09T23:14:42;3.70;;;3.00;;
38611;SDS011;24368;52.156;20.788;2023-05-09T23:19:43;4.30;;;3.30;;
38611;SDS011;24368;52.156;20.788;2023-05-09T23:24:44;4.60;;;3.70;;
38611;SDS011;24368;52.156;20.788;2023-05-09T23:29:45;4.00;;;3.60;;
38611;SDS011;24368;52.156;20.788;2023-05-09T23:34:46;3.90;;;3.60;;
38611;SDS011;24368;52.156;20.788;2023-05-09T23:39:48;5.70;;;3.80;;
38611;SDS011;24368;52.156;20.788;2023-05-09T23:44:49;3.60;;;3.30;;
38611;SDS011;24368;52.156;20.788;2023-05-09T23:49:50;7.60;;;4.50;;
38611;SDS011;24368;52.156;20.788;2023-05-09T23:54:51;5.70;;;4.30;;
38611;SDS011;24368;52.156;20.788;2023-05-09T23:59:52;4.80;;;4.40;;
